sensor_id;sensor_type;location;lat;lon;timestamp;P1;durP1;ratioP1;P2;durP2;ratioP2
14518;SDS011;7346;50.846;4.388;2022-09-03T00:01:43;4.65;;;1.98;;
14518;SDS011;7346;50.846;4.388;2022-09-03T00:04:15;8.07;;;1.80;;
14518;SDS011;7346;50.846;4.388;2022-09-03T00:06:51;3.47;;;1.80;;
14518;SDS011;7346;50.846;4.388;2022-09-03T00:09:26;9.85;;;2.40;;
14518;SDS011;7346;50.846;4.388;2022-09-03T00:11:59;11.98;;;2.55;;
14518;SDS011;7346;50.846;4.388;2022-09-03T00:14:32;6.90;;;2.20;;
14518;SDS011;7346;50.846;4.388;2022-09-03T00:17:06;9.98;;;2.25;;
14518;SDS011;7346;50.846;4.388;2022-09-03T00:19:39;4.78;;;2.13;;
14518;SDS011;7346;50.846;4.388;2022-09-03T00:22:11;4.63;;;2.10;;
14518;SDS011;7346;50.846;4.388;2022-09-03T00:24:41;5.72;;;2.13;;
14518;SDS011;7346;50.846;4.388;2022-09-03T00:27:11;4.70;;;2.15;;
14518;SDS011;7346;50.846;4.388;2022-09-03T00:29:44;5.32;;;2.38;;
14518;SDS011;7346;50.846;4.388;2022-09-03T00:32:16;21.27;;;3.45;;
14518;SDS011;7346;50.846;4.388;2022-09-03T00:34:48;6.82;;;2.00;;
14518;SDS011;7346;50.846;4.388;2022-09-03T00:37:19;6.93;;;1.77;;
14518;SDS011;7346;50.846;4.388;2022-09-03T00:39:46;7.30;;;2.00;;
14518;SDS011;7346;50.846;4.388;2022-09-03T00:42:20;3.25;;;1.55;;
14518;SDS011;7346;50.846;4.388;2022-09-03T00:45:02;6.78;;;2.00;;
14518;SDS011;7346;50.846;4.388;2022-09-03T00:47:43;4.20;;;1.73;;
14518;SDS011;7346;50.846;4.388;2022-09-03T00:50:20;3.33;;;1.60;;
14518;SDS011;7346;50.846;4.388;2022-09-03T00:52:59;6.65;;;2.00;;
14518;SDS011;7346;50.846;4.388;2022-09-03T00:55:36;2.65;;;1.70;;
14518;SDS011;7346;50.846;4.388;2022-09-03T01:01:18;45.70;;;3.92;;
14518;SDS011;7346;50.846;4.388;2022-09-03T01:03:51;11.13;;;2.47;;
14518;SDS011;7346;50.846;4.388;2022-09-03T01:06:32;4.78;;;1.80;;
14518;SDS011;7346;50.846;4.388;2022-09-03T01:09:11;13.05;;;2.78;;
14518;SDS011;7346;50.846;4.388;2022-09-03T01:11:50;2.50;;;1.83;;
14518;SDS011;7346;50.846;4.388;2022-09-03T01:14:26;2.63;;;1.60;;
14518;SDS011;7346;50.846;4.388;2022-09-03T01:17:03;6.28;;;2.47;;
14518;SDS011;7346;50.846;4.388;2022-09-03T01:19:46;2.70;;;1.80;;
14518;SDS011;7346;50.846;4.388;2022-09-03T01:22:43;5.80;;;2.03;;
14518;SDS011;7346;50.846;4.388;2022-09-03T01:25:45;8.95;;;2.17;;
14518;SDS011;7346;50.846;4.388;2022-09-03T01:28:24;5.10;;;2.20;;
14518;SDS011;7346;50.846;4.388;2022-09-03T01:31:00;3.50;;;2.00;;
14518;SDS011;7346;50.846;4.388;2022-09-03T01:33:38;35.85;;;5.32;;
14518;SDS011;7346;50.846;4.388;2022-09-03T01:36:10;3.13;;;2.10;;
14518;SDS011;7346;50.846;4.388;2022-09-03T01:38:44;9.00;;;2.35;;
14518;SDS011;7346;50.846;4.388;2022-09-03T01:41:17;8.15;;;2.05;;
14518;SDS011;7346;50.846;4.388;2022-09-03T01:44:12;10.43;;;2.65;;
14518;SDS011;7346;50.846;4.388;2022-09-03T01:46:48;9.30;;;2.78;;
14518;SDS011;7346;50.846;4.388;2022-09-03T01:49:22;14.23;;;2.60;;
14518;SDS011;7346;50.846;4.388;2022-09-03T01:51:57;3.70;;;2.03;;
14518;SDS011;7346;50.846;4.388;2022-09-03T01:54:36;7.57;;;2.72;;
14518;SDS011;7346;50.846;4.388;2022-09-03T01:57:21;5.60;;;2.50;;
14518;SDS011;7346;50.846;4.388;2022-09-03T02:00:08;15.38;;;3.20;;
14518;SDS011;7346;50.846;4.388;2022-09-03T02:02:37;23.58;;;3.63;;
14518;SDS011;7346;50.846;4.388;2022-09-03T02:05:07;25.00;;;4.47;;
14518;SDS011;7346;50.846;4.388;2022-09-03T02:07:36;20.38;;;4.25;;
14518;SDS011;7346;50.846;4.388;2022-09-03T02:10:05;13.88;;;3.17;;
14518;SDS011;7346;50.846;4.388;2022-09-03T02:12:35;16.08;;;3.53;;
14518;SDS011;7346;50.846;4.388;2022-09-03T02:15:04;7.70;;;3.08;;
14518;SDS011;7346;50.846;4.388;2022-09-03T02:17:36;7.57;;;2.97;;
14518;SDS011;7346;50.846;4.388;2022-09-03T02:20:05;16.77;;;3.53;;
14518;SDS011;7346;50.846;4.388;2022-09-03T02:22:36;8.40;;;3.30;;
14518;SDS011;7346;50.846;4.388;2022-09-03T02:25:04;10.98;;;3.78;;
14518;SDS011;7346;50.846;4.388;2022-09-03T02:27:32;5.90;;;3.63;;
14518;SDS011;7346;50.846;4.388;2022-09-03T02:29:59;5.85;;;3.38;;
14518;SDS011;7346;50.846;4.388;2022-09-03T02:32:28;10.98;;;4.40;;
14518;SDS011;7346;50.846;4.388;2022-09-03T02:34:55;8.18;;;3.60;;
14518;SDS011;7346;50.846;4.388;2022-09-03T02:37:22;6.80;;;4.30;;
14518;SDS011;7346;50.846;4.388;2022-09-03T02:39:49;9.35;;;4.38;;
14518;SDS011;7346;50.846;4.388;2022-09-03T02:42:17;6.07;;;4.18;;
14518;SDS011;7346;50.846;4.388;2022-09-03T02:44:45;5.88;;;4.13;;
14518;SDS011;7346;50.846;4.388;2022-09-03T02:47:17;22.30;;;6.13;;
14518;SDS011;7346;50.846;4.388;2022-09-03T02:49:46;11.52;;;4.43;;
14518;SDS011;7346;50.846;4.388;2022-09-03T02:52:13;7.68;;;4.30;;
14518;SDS011;7346;50.846;4.388;2022-09-03T02:54:40;10.18;;;4.05;;
14518;SDS011;7346;50.846;4.388;2022-09-03T02:57:09;9.30;;;4.28;;
14518;SDS011;7346;50.846;4.388;2022-09-03T02:59:38;5.93;;;5.00;;
14518;SDS011;7346;50.846;4.388;2022-09-03T03:02:08;11.73;;;4.43;;
14518;SDS011;7346;50.846;4.388;2022-09-03T03:04:35;12.13;;;4.90;;
14518;SDS011;7346;50.846;4.388;2022-09-03T03:07:04;7.43;;;4.93;;
14518;SDS011;7346;50.846;4.388;2022-09-03T03:09:31;6.72;;;4.50;;
14518;SDS011;7346;50.846;4.388;2022-09-03T03:11:58;5.22;;;4.25;;
14518;SDS011;7346;50.846;4.388;2022-09-03T03:14:25;8.73;;;4.68;;
14518;SDS011;7346;50.846;4.388;2022-09-03T03:16:52;11.32;;;5.10;;
14518;SDS011;7346;50.846;4.388;2022-09-03T03:19:19;8.68;;;4.57;;
14518;SDS011;7346;50.846;4.388;2022-09-03T03:21:45;8.80;;;4.30;;
14518;SDS011;7346;50.846;4.388;2022-09-03T03:24:14;7.07;;;4.68;;
14518;SDS011;7346;50.846;4.388;2022-09-03T03:26:41;9.07;;;4.70;;
14518;SDS011;7346;50.846;4.388;2022-09-03T03:29:07;11.18;;;5.03;;
14518;SDS011;7346;50.846;4.388;2022-09-03T03:31:41;5.80;;;4.32;;
14518;SDS011;7346;50.846;4.388;2022-09-03T03:34:09;8.35;;;4.45;;
14518;SDS011;7346;50.846;4.388;2022-09-03T03:36:36;6.43;;;4.38;;
14518;SDS011;7346;50.846;4.388;2022-09-03T03:39:03;4.80;;;4.22;;
14518;SDS011;7346;50.846;4.388;2022-09-03T03:41:32;4.80;;;3.80;;
14518;SDS011;7346;50.846;4.388;2022-09-03T03:44:01;30.88;;;7.25;;
14518;SDS011;7346;50.846;4.388;2022-09-03T03:46:30;6.93;;;4.10;;
14518;SDS011;7346;50.846;4.388;2022-09-03T03:48:58;5.95;;;3.28;;
14518;SDS011;7346;50.846;4.388;2022-09-03T03:51:25;4.68;;;3.13;;
14518;SDS011;7346;50.846;4.388;2022-09-03T03:53:53;5.85;;;2.88;;
14518;SDS011;7346;50.846;4.388;2022-09-03T03:56:22;10.27;;;3.47;;
14518;SDS011;7346;50.846;4.388;2022-09-03T03:58:51;7.57;;;3.22;;
14518;SDS011;7346;50.846;4.388;2022-09-03T04:01:20;8.85;;;3.60;;
14518;SDS011;7346;50.846;4.388;2022-09-03T04:03:47;4.68;;;3.67;;
14518;SDS011;7346;50.846;4.388;2022-09-03T04:06:15;3.90;;;3.35;;
14518;SDS011;7346;50.846;4.388;2022-09-03T04:08:45;3.53;;;3.22;;
14518;SDS011;7346;50.846;4.388;2022-09-03T04:11:14;3.85;;;2.70;;
14518;SDS011;7346;50.846;4.388;2022-09-03T04:13:42;4.63;;;2.80;;
14518;SDS011;7346;50.846;4.388;2022-09-03T04:16:12;4.28;;;3.40;;
14518;SDS011;7346;50.846;4.388;2022-09-03T04:18:40;6.68;;;2.60;;
14518;SDS011;7346;50.846;4.388;2022-09-03T04:21:08;2.58;;;2.20;;
14518;SDS011;7346;50.846;4.388;2022-09-03T04:23:37;4.18;;;2.42;;
14518;SDS011;7346;50.846;4.388;2022-09-03T04:26:06;2.80;;;2.45;;
14518;SDS011;7346;50.846;4.388;2022-09-03T04:28:34;2.92;;;2.45;;
14518;SDS011;7346;50.846;4.388;2022-09-03T04:31:02;2.67;;;2.38;;
14518;SDS011;7346;50.846;4.388;2022-09-03T04:33:31;2.88;;;2.28;;
14518;SDS011;7346;50.846;4.388;2022-09-03T04:36:03;4.82;;;2.60;;
14518;SDS011;7346;50.846;4.388;2022-09-03T04:38:32;3.95;;;3.08;;
14518;SDS011;7346;50.846;4.388;2022-09-03T04:40:59;3.33;;;3.00;;
14518;SDS011;7346;50.846;4.388;2022-09-03T04:43:26;5.40;;;2.95;;
14518;SDS011;7346;50.846;4.388;2022-09-03T04:45:57;4.78;;;3.30;;
14518;SDS011;7346;50.846;4.388;2022-09-03T04:48:25;6.53;;;3.50;;
14518;SDS011;7346;50.846;4.388;2022-09-03T04:50:54;11.27;;;7.45;;
14518;SDS011;7346;50.846;4.388;2022-09-03T04:53:29;4.95;;;3.63;;
14518;SDS011;7346;50.846;4.388;2022-09-03T04:55:56;8.95;;;6.13;;
14518;SDS011;7346;50.846;4.388;2022-09-03T04:58:23;11.82;;;10.63;;
14518;SDS011;7346;50.846;4.388;2022-09-03T05:00:50;6.82;;;6.18;;
14518;SDS011;7346;50.846;4.388;2022-09-03T05:03:17;5.78;;;4.65;;
14518;SDS011;7346;50.846;4.388;2022-09-03T05:05:50;4.95;;;3.80;;
14518;SDS011;7346;50.846;4.388;2022-09-03T05:08:19;4.40;;;4.00;;
14518;SDS011;7346;50.846;4.388;2022-09-03T05:10:46;6.00;;;4.00;;
14518;SDS011;7346;50.846;4.388;2022-09-03T05:13:13;4.30;;;3.38;;
14518;SDS011;7346;50.846;4.388;2022-09-03T05:15:40;10.23;;;6.05;;
14518;SDS011;7346;50.846;4.388;2022-09-03T05:18:08;10.15;;;8.68;;
14518;SDS011;7346;50.846;4.388;2022-09-03T05:20:35;13.77;;;10.55;;
14518;SDS011;7346;50.846;4.388;2022-09-03T05:23:02;5.43;;;3.53;;
14518;SDS011;7346;50.846;4.388;2022-09-03T05:25:30;6.05;;;4.00;;
14518;SDS011;7346;50.846;4.388;2022-09-03T05:27:58;5.03;;;3.92;;
14518;SDS011;7346;50.846;4.388;2022-09-03T05:30:25;5.43;;;4.55;;
14518;SDS011;7346;50.846;4.388;2022-09-03T05:32:52;12.10;;;9.25;;
14518;SDS011;7346;50.846;4.388;2022-09-03T05:35:19;5.18;;;4.68;;
14518;SDS011;7346;50.846;4.388;2022-09-03T05:37:46;5.72;;;3.70;;
14518;SDS011;7346;50.846;4.388;2022-09-03T05:40:13;4.93;;;3.40;;
14518;SDS011;7346;50.846;4.388;2022-09-03T05:42:41;4.07;;;2.97;;
14518;SDS011;7346;50.846;4.388;2022-09-03T05:45:09;5.43;;;3.70;;
14518;SDS011;7346;50.846;4.388;2022-09-03T05:47:36;8.57;;;4.22;;
14518;SDS011;7346;50.846;4.388;2022-09-03T05:50:05;8.70;;;3.90;;
14518;SDS011;7346;50.846;4.388;2022-09-03T05:52:34;12.60;;;4.75;;
14518;SDS011;7346;50.846;4.388;2022-09-03T05:55:02;8.27;;;3.97;;
14518;SDS011;7346;50.846;4.388;2022-09-03T05:57:29;7.30;;;3.70;;
14518;SDS011;7346;50.846;4.388;2022-09-03T05:59:57;9.52;;;3.80;;
14518;SDS011;7346;50.846;4.388;2022-09-03T06:02:24;7.30;;;3.67;;
14518;SDS011;7346;50.846;4.388;2022-09-03T06:04:51;3.47;;;2.85;;
14518;SDS011;7346;50.846;4.388;2022-09-03T06:07:18;5.45;;;3.65;;
14518;SDS011;7346;50.846;4.388;2022-09-03T06:09:46;4.57;;;3.55;;
14518;SDS011;7346;50.846;4.388;2022-09-03T06:12:12;4.82;;;3.53;;
14518;SDS011;7346;50.846;4.388;2022-09-03T06:14:39;4.63;;;3.45;;
14518;SDS011;7346;50.846;4.388;2022-09-03T06:17:07;6.50;;;3.38;;
14518;SDS011;7346;50.846;4.388;2022-09-03T06:19:36;6.13;;;3.30;;
14518;SDS011;7346;50.846;4.388;2022-09-03T06:22:03;5.30;;;3.38;;
14518;SDS011;7346;50.846;4.388;2022-09-03T06:24:30;4.82;;;3.78;;
14518;SDS011;7346;50.846;4.388;2022-09-03T06:26:57;4.13;;;3.67;;
14518;SDS011;7346;50.846;4.388;2022-09-03T06:29:25;6.00;;;3.20;;
14518;SDS011;7346;50.846;4.388;2022-09-03T06:31:52;8.23;;;3.10;;
14518;SDS011;7346;50.846;4.388;2022-09-03T06:34:21;6.15;;;3.50;;
14518;SDS011;7346;50.846;4.388;2022-09-03T06:36:50;7.43;;;3.72;;
14518;SDS011;7346;50.846;4.388;2022-09-03T06:39:17;5.25;;;3.58;;
14518;SDS011;7346;50.846;4.388;2022-09-03T06:41:44;6.65;;;3.40;;
14518;SDS011;7346;50.846;4.388;2022-09-03T06:44:16;6.25;;;3.50;;
14518;SDS011;7346;50.846;4.388;2022-09-03T06:46:43;4.15;;;3.35;;
14518;SDS011;7346;50.846;4.388;2022-09-03T06:49:11;4.00;;;3.15;;
14518;SDS011;7346;50.846;4.388;2022-09-03T06:51:39;4.47;;;3.65;;
14518;SDS011;7346;50.846;4.388;2022-09-03T06:54:09;3.90;;;3.03;;
14518;SDS011;7346;50.846;4.388;2022-09-03T06:56:37;7.10;;;3.20;;
14518;SDS011;7346;50.846;4.388;2022-09-03T06:59:06;3.35;;;2.83;;
14518;SDS011;7346;50.846;4.388;2022-09-03T07:01:34;5.15;;;3.13;;
14518;SDS011;7346;50.846;4.388;2022-09-03T07:04:05;5.55;;;2.63;;
14518;SDS011;7346;50.846;4.388;2022-09-03T07:06:34;6.75;;;2.97;;
14518;SDS011;7346;50.846;4.388;2022-09-03T07:09:04;3.60;;;2.63;;
14518;SDS011;7346;50.846;4.388;2022-09-03T07:11:31;4.57;;;2.60;;
14518;SDS011;7346;50.846;4.388;2022-09-03T07:14:00;5.82;;;2.42;;
14518;SDS011;7346;50.846;4.388;2022-09-03T07:16:29;6.50;;;3.13;;
14518;SDS011;7346;50.846;4.388;2022-09-03T07:18:57;5.93;;;2.40;;
14518;SDS011;7346;50.846;4.388;2022-09-03T07:21:29;4.78;;;2.60;;
14518;SDS011;7346;50.846;4.388;2022-09-03T07:23:58;4.05;;;2.20;;
14518;SDS011;7346;50.846;4.388;2022-09-03T07:26:29;3.05;;;2.28;;
14518;SDS011;7346;50.846;4.388;2022-09-03T07:28:56;6.00;;;2.55;;
14518;SDS011;7346;50.846;4.388;2022-09-03T07:31:25;5.88;;;2.67;;
14518;SDS011;7346;50.846;4.388;2022-09-03T07:33:54;7.18;;;2.58;;
14518;SDS011;7346;50.846;4.388;2022-09-03T07:36:22;5.68;;;2.38;;
14518;SDS011;7346;50.846;4.388;2022-09-03T07:38:50;2.88;;;2.50;;
14518;SDS011;7346;50.846;4.388;2022-09-03T07:41:19;6.25;;;2.50;;
14518;SDS011;7346;50.846;4.388;2022-09-03T07:43:48;5.13;;;2.70;;
14518;SDS011;7346;50.846;4.388;2022-09-03T07:46:16;5.18;;;2.80;;
14518;SDS011;7346;50.846;4.388;2022-09-03T07:48:47;5.35;;;2.58;;
14518;SDS011;7346;50.846;4.388;2022-09-03T07:51:14;3.83;;;2.75;;
14518;SDS011;7346;50.846;4.388;2022-09-03T07:53:42;5.60;;;2.80;;
14518;SDS011;7346;50.846;4.388;2022-09-03T07:56:10;6.70;;;3.53;;
14518;SDS011;7346;50.846;4.388;2022-09-03T07:58:37;4.93;;;2.90;;
14518;SDS011;7346;50.846;4.388;2022-09-03T08:01:07;6.57;;;2.75;;
14518;SDS011;7346;50.846;4.388;2022-09-03T08:03:35;5.35;;;2.78;;
14518;SDS011;7346;50.846;4.388;2022-09-03T08:06:03;6.00;;;2.72;;
14518;SDS011;7346;50.846;4.388;2022-09-03T08:08:32;6.75;;;2.42;;
14518;SDS011;7346;50.846;4.388;2022-09-03T08:11:04;5.70;;;2.95;;
14518;SDS011;7346;50.846;4.388;2022-09-03T08:13:35;9.75;;;3.42;;
14518;SDS011;7346;50.846;4.388;2022-09-03T08:16:03;5.10;;;2.60;;
14518;SDS011;7346;50.846;4.388;2022-09-03T08:18:32;3.50;;;2.60;;
14518;SDS011;7346;50.846;4.388;2022-09-03T08:21:03;4.50;;;2.90;;
14518;SDS011;7346;50.846;4.388;2022-09-03T08:23:32;5.78;;;3.20;;
14518;SDS011;7346;50.846;4.388;2022-09-03T08:26:02;4.93;;;2.80;;
14518;SDS011;7346;50.846;4.388;2022-09-03T08:28:32;6.22;;;2.50;;
14518;SDS011;7346;50.846;4.388;2022-09-03T08:31:03;7.15;;;3.03;;
14518;SDS011;7346;50.846;4.388;2022-09-03T08:33:32;8.50;;;4.25;;
14518;SDS011;7346;50.846;4.388;2022-09-03T08:36:03;6.38;;;3.00;;
14518;SDS011;7346;50.846;4.388;2022-09-03T08:38:32;3.72;;;2.83;;
14518;SDS011;7346;50.846;4.388;2022-09-03T08:41:04;10.18;;;3.50;;
14518;SDS011;7346;50.846;4.388;2022-09-03T08:43:35;9.15;;;3.75;;
14518;SDS011;7346;50.846;4.388;2022-09-03T08:46:17;10.45;;;3.50;;
14518;SDS011;7346;50.846;4.388;2022-09-03T08:48:46;9.48;;;3.20;;
14518;SDS011;7346;50.846;4.388;2022-09-03T08:51:17;10.55;;;3.30;;
14518;SDS011;7346;50.846;4.388;2022-09-03T08:53:49;9.45;;;3.35;;
14518;SDS011;7346;50.846;4.388;2022-09-03T08:56:23;7.10;;;3.35;;
14518;SDS011;7346;50.846;4.388;2022-09-03T08:58:53;5.20;;;3.35;;
14518;SDS011;7346;50.846;4.388;2022-09-03T09:01:24;4.63;;;3.17;;
14518;SDS011;7346;50.846;4.388;2022-09-03T09:04:03;4.95;;;3.30;;
14518;SDS011;7346;50.846;4.388;2022-09-03T09:06:37;9.98;;;3.38;;
14518;SDS011;7346;50.846;4.388;2022-09-03T09:09:13;8.23;;;3.25;;
14518;SDS011;7346;50.846;4.388;2022-09-03T09:11:52;3.95;;;3.45;;
14518;SDS011;7346;50.846;4.388;2022-09-03T09:14:29;12.15;;;3.90;;
14518;SDS011;7346;50.846;4.388;2022-09-03T09:17:04;5.32;;;3.30;;
14518;SDS011;7346;50.846;4.388;2022-09-03T09:19:48;7.18;;;3.83;;
14518;SDS011;7346;50.846;4.388;2022-09-03T09:22:24;9.60;;;3.97;;
14518;SDS011;7346;50.846;4.388;2022-09-03T09:24:55;7.43;;;4.00;;
14518;SDS011;7346;50.846;4.388;2022-09-03T09:27:27;5.22;;;4.05;;
14518;SDS011;7346;50.846;4.388;2022-09-03T09:29:54;7.63;;;3.70;;
14518;SDS011;7346;50.846;4.388;2022-09-03T09:32:26;13.07;;;4.03;;
14518;SDS011;7346;50.846;4.388;2022-09-03T09:34:54;6.88;;;4.00;;
14518;SDS011;7346;50.846;4.388;2022-09-03T09:37:21;13.73;;;4.82;;
14518;SDS011;7346;50.846;4.388;2022-09-03T09:39:55;9.90;;;4.30;;
14518;SDS011;7346;50.846;4.388;2022-09-03T09:42:26;17.55;;;5.00;;
14518;SDS011;7346;50.846;4.388;2022-09-03T09:44:55;12.63;;;4.30;;
14518;SDS011;7346;50.846;4.388;2022-09-03T09:47:24;6.50;;;4.13;;
14518;SDS011;7346;50.846;4.388;2022-09-03T09:49:58;6.53;;;3.80;;
14518;SDS011;7346;50.846;4.388;2022-09-03T09:52:26;12.63;;;4.30;;
14518;SDS011;7346;50.846;4.388;2022-09-03T09:55:04;7.32;;;4.15;;
14518;SDS011;7346;50.846;4.388;2022-09-03T09:57:33;8.68;;;4.28;;
14518;SDS011;7346;50.846;4.388;2022-09-03T10:00:02;5.32;;;4.28;;
14518;SDS011;7346;50.846;4.388;2022-09-03T10:02:34;5.88;;;4.03;;
14518;SDS011;7346;50.846;4.388;2022-09-03T10:05:12;14.02;;;4.40;;
14518;SDS011;7346;50.846;4.388;2022-09-03T10:07:40;6.13;;;4.10;;
14518;SDS011;7346;50.846;4.388;2022-09-03T10:10:17;4.90;;;3.90;;
14518;SDS011;7346;50.846;4.388;2022-09-03T10:12:47;4.18;;;3.78;;
14518;SDS011;7346;50.846;4.388;2022-09-03T10:15:24;7.63;;;4.22;;
14518;SDS011;7346;50.846;4.388;2022-09-03T10:18:02;10.40;;;4.30;;
14518;SDS011;7346;50.846;4.388;2022-09-03T10:20:38;8.13;;;4.03;;
14518;SDS011;7346;50.846;4.388;2022-09-03T10:23:14;6.78;;;3.80;;
14518;SDS011;7346;50.846;4.388;2022-09-03T10:25:56;7.95;;;3.95;;
14518;SDS011;7346;50.846;4.388;2022-09-03T10:28:31;11.60;;;4.25;;
14518;SDS011;7346;50.846;4.388;2022-09-03T10:31:06;8.27;;;4.22;;
14518;SDS011;7346;50.846;4.388;2022-09-03T10:33:46;5.53;;;4.07;;
14518;SDS011;7346;50.846;4.388;2022-09-03T10:36:22;7.45;;;4.38;;
14518;SDS011;7346;50.846;4.388;2022-09-03T10:38:55;22.20;;;5.68;;
14518;SDS011;7346;50.846;4.388;2022-09-03T10:41:35;10.00;;;4.53;;
14518;SDS011;7346;50.846;4.388;2022-09-03T10:44:24;13.85;;;5.40;;
14518;SDS011;7346;50.846;4.388;2022-09-03T10:50:18;5.82;;;4.10;;
14518;SDS011;7346;50.846;4.388;2022-09-03T10:55:43;7.93;;;4.25;;
14518;SDS011;7346;50.846;4.388;2022-09-03T10:58:22;5.68;;;4.35;;
14518;SDS011;7346;50.846;4.388;2022-09-03T11:01:02;14.80;;;5.43;;
14518;SDS011;7346;50.846;4.388;2022-09-03T11:03:39;6.55;;;4.40;;
14518;SDS011;7346;50.846;4.388;2022-09-03T11:06:15;5.75;;;5.05;;
14518;SDS011;7346;50.846;4.388;2022-09-03T11:08:48;7.95;;;4.45;;
14518;SDS011;7346;50.846;4.388;2022-09-03T11:11:20;6.80;;;5.03;;
14518;SDS011;7346;50.846;4.388;2022-09-03T11:13:55;10.13;;;5.20;;
14518;SDS011;7346;50.846;4.388;2022-09-03T11:16:30;7.05;;;4.20;;
14518;SDS011;7346;50.846;4.388;2022-09-03T11:19:00;6.72;;;4.25;;
14518;SDS011;7346;50.846;4.388;2022-09-03T11:21:30;6.72;;;4.72;;
14518;SDS011;7346;50.846;4.388;2022-09-03T11:24:03;6.55;;;4.50;;
14518;SDS011;7346;50.846;4.388;2022-09-03T11:26:45;8.63;;;4.25;;
14518;SDS011;7346;50.846;4.388;2022-09-03T11:29:19;6.80;;;4.38;;
14518;SDS011;7346;50.846;4.388;2022-09-03T11:31:56;7.97;;;4.53;;
14518;SDS011;7346;50.846;4.388;2022-09-03T11:34:31;5.65;;;4.25;;
14518;SDS011;7346;50.846;4.388;2022-09-03T11:37:18;6.60;;;3.85;;
14518;SDS011;7346;50.846;4.388;2022-09-03T11:39:57;6.00;;;3.88;;
14518;SDS011;7346;50.846;4.388;2022-09-03T11:42:33;6.00;;;3.83;;
14518;SDS011;7346;50.846;4.388;2022-09-03T11:45:12;44.10;;;6.63;;
14518;SDS011;7346;50.846;4.388;2022-09-03T11:47:47;4.32;;;3.30;;
14518;SDS011;7346;50.846;4.388;2022-09-03T11:50:19;9.00;;;3.70;;
14518;SDS011;7346;50.846;4.388;2022-09-03T11:52:52;4.68;;;4.13;;
14518;SDS011;7346;50.846;4.388;2022-09-03T11:55:45;11.32;;;4.05;;
14518;SDS011;7346;50.846;4.388;2022-09-03T11:58:21;7.78;;;3.60;;
14518;SDS011;7346;50.846;4.388;2022-09-03T12:00:55;11.40;;;4.22;;
14518;SDS011;7346;50.846;4.388;2022-09-03T12:03:26;10.10;;;3.95;;
14518;SDS011;7346;50.846;4.388;2022-09-03T12:06:07;5.38;;;3.28;;
14518;SDS011;7346;50.846;4.388;2022-09-03T12:08:55;5.32;;;4.00;;
14518;SDS011;7346;50.846;4.388;2022-09-03T12:11:45;5.03;;;3.90;;
14518;SDS011;7346;50.846;4.388;2022-09-03T12:14:22;4.13;;;3.60;;
14518;SDS011;7346;50.846;4.388;2022-09-03T12:17:07;10.45;;;3.78;;
14518;SDS011;7346;50.846;4.388;2022-09-03T12:19:43;9.65;;;4.03;;
14518;SDS011;7346;50.846;4.388;2022-09-03T12:22:15;13.55;;;5.20;;
14518;SDS011;7346;50.846;4.388;2022-09-03T12:24:44;5.63;;;3.50;;
14518;SDS011;7346;50.846;4.388;2022-09-03T12:27:14;7.05;;;5.28;;
14518;SDS011;7346;50.846;4.388;2022-09-03T12:29:49;7.07;;;4.95;;
14518;SDS011;7346;50.846;4.388;2022-09-03T12:32:22;6.35;;;4.97;;
14518;SDS011;7346;50.846;4.388;2022-09-03T12:34:50;8.88;;;4.93;;
14518;SDS011;7346;50.846;4.388;2022-09-03T12:37:21;7.28;;;4.65;;
14518;SDS011;7346;50.846;4.388;2022-09-03T12:39:51;9.15;;;5.32;;
14518;SDS011;7346;50.846;4.388;2022-09-03T12:42:23;4.97;;;4.40;;
14518;SDS011;7346;50.846;4.388;2022-09-03T12:45:03;9.80;;;7.68;;
14518;SDS011;7346;50.846;4.388;2022-09-03T12:47:40;4.85;;;3.30;;
14518;SDS011;7346;50.846;4.388;2022-09-03T12:50:10;6.25;;;3.17;;
14518;SDS011;7346;50.846;4.388;2022-09-03T12:52:38;3.95;;;3.17;;
14518;SDS011;7346;50.846;4.388;2022-09-03T12:55:23;4.68;;;3.70;;
14518;SDS011;7346;50.846;4.388;2022-09-03T12:57:58;6.25;;;3.30;;
14518;SDS011;7346;50.846;4.388;2022-09-03T13:00:30;6.35;;;3.50;;
14518;SDS011;7346;50.846;4.388;2022-09-03T13:03:03;3.28;;;2.97;;
14518;SDS011;7346;50.846;4.388;2022-09-03T13:05:36;4.97;;;3.00;;
14518;SDS011;7346;50.846;4.388;2022-09-03T13:08:09;4.88;;;3.38;;
14518;SDS011;7346;50.846;4.388;2022-09-03T13:10:44;3.95;;;2.90;;
14518;SDS011;7346;50.846;4.388;2022-09-03T13:13:18;5.03;;;2.70;;
14518;SDS011;7346;50.846;4.388;2022-09-03T13:19:13;5.70;;;3.45;;
14518;SDS011;7346;50.846;4.388;2022-09-03T13:21:47;6.63;;;2.97;;
14518;SDS011;7346;50.846;4.388;2022-09-03T13:24:26;5.55;;;3.15;;
14518;SDS011;7346;50.846;4.388;2022-09-03T13:27:07;4.47;;;2.78;;
14518;SDS011;7346;50.846;4.388;2022-09-03T13:29:50;9.55;;;3.60;;
14518;SDS011;7346;50.846;4.388;2022-09-03T13:32:28;3.55;;;2.80;;
14518;SDS011;7346;50.846;4.388;2022-09-03T13:35:05;5.60;;;2.53;;
14518;SDS011;7346;50.846;4.388;2022-09-03T13:37:36;4.47;;;2.55;;
14518;SDS011;7346;50.846;4.388;2022-09-03T13:40:18;3.63;;;2.38;;
14518;SDS011;7346;50.846;4.388;2022-09-03T13:43:36;16.83;;;4.25;;
14518;SDS011;7346;50.846;4.388;2022-09-03T13:46:09;4.43;;;2.35;;
14518;SDS011;7346;50.846;4.388;2022-09-03T13:48:42;2.70;;;2.20;;
14518;SDS011;7346;50.846;4.388;2022-09-03T13:51:28;2.45;;;2.25;;
14518;SDS011;7346;50.846;4.388;2022-09-03T13:54:10;8.48;;;2.15;;
14518;SDS011;7346;50.846;4.388;2022-09-03T13:56:43;4.95;;;2.10;;
14518;SDS011;7346;50.846;4.388;2022-09-03T13:59:22;9.95;;;2.70;;
14518;SDS011;7346;50.846;4.388;2022-09-03T14:01:59;2.15;;;1.70;;
14518;SDS011;7346;50.846;4.388;2022-09-03T14:04:39;2.13;;;1.92;;
14518;SDS011;7346;50.846;4.388;2022-09-03T14:07:14;2.95;;;1.88;;
14518;SDS011;7346;50.846;4.388;2022-09-03T14:09:50;3.45;;;1.70;;
14518;SDS011;7346;50.846;4.388;2022-09-03T14:12:27;3.72;;;1.52;;
14518;SDS011;7346;50.846;4.388;2022-09-03T14:15:04;4.50;;;1.55;;
14518;SDS011;7346;50.846;4.388;2022-09-03T14:17:36;2.25;;;1.50;;
14518;SDS011;7346;50.846;4.388;2022-09-03T14:20:12;5.85;;;1.90;;
14518;SDS011;7346;50.846;4.388;2022-09-03T14:22:48;4.75;;;1.65;;
14518;SDS011;7346;50.846;4.388;2022-09-03T14:25:21;3.88;;;2.08;;
14518;SDS011;7346;50.846;4.388;2022-09-03T14:27:51;4.38;;;1.90;;
14518;SDS011;7346;50.846;4.388;2022-09-03T14:30:26;3.53;;;2.05;;
14518;SDS011;7346;50.846;4.388;2022-09-03T14:33:06;5.28;;;1.65;;
14518;SDS011;7346;50.846;4.388;2022-09-03T14:35:55;4.75;;;2.13;;
14518;SDS011;7346;50.846;4.388;2022-09-03T14:38:36;11.45;;;2.38;;
14518;SDS011;7346;50.846;4.388;2022-09-03T14:41:18;5.45;;;2.33;;
14518;SDS011;7346;50.846;4.388;2022-09-03T14:44:10;13.00;;;3.15;;
14518;SDS011;7346;50.846;4.388;2022-09-03T14:46:51;5.43;;;2.70;;
14518;SDS011;7346;50.846;4.388;2022-09-03T14:49:33;7.90;;;2.95;;
14518;SDS011;7346;50.846;4.388;2022-09-03T14:52:20;5.32;;;3.03;;
14518;SDS011;7346;50.846;4.388;2022-09-03T14:55:01;12.52;;;3.97;;
14518;SDS011;7346;50.846;4.388;2022-09-03T14:57:51;9.40;;;3.65;;
14518;SDS011;7346;50.846;4.388;2022-09-03T15:00:41;10.88;;;3.50;;
14518;SDS011;7346;50.846;4.388;2022-09-03T15:03:27;11.95;;;3.85;;
14518;SDS011;7346;50.846;4.388;2022-09-03T15:06:10;7.57;;;2.95;;
14518;SDS011;7346;50.846;4.388;2022-09-03T15:11:45;8.25;;;3.60;;
14518;SDS011;7346;50.846;4.388;2022-09-03T15:14:17;7.68;;;4.05;;
14518;SDS011;7346;50.846;4.388;2022-09-03T15:16:50;6.63;;;4.07;;
14518;SDS011;7346;50.846;4.388;2022-09-03T15:22:25;8.63;;;3.60;;
14518;SDS011;7346;50.846;4.388;2022-09-03T15:25:06;7.57;;;3.17;;
14518;SDS011;7346;50.846;4.388;2022-09-03T15:27:50;4.75;;;3.10;;
14518;SDS011;7346;50.846;4.388;2022-09-03T15:30:34;6.63;;;4.38;;
14518;SDS011;7346;50.846;4.388;2022-09-03T15:33:10;6.38;;;4.07;;
14518;SDS011;7346;50.846;4.388;2022-09-03T15:38:44;4.35;;;3.63;;
14518;SDS011;7346;50.846;4.388;2022-09-03T15:41:30;5.65;;;4.70;;
14518;SDS011;7346;50.846;4.388;2022-09-03T15:44:05;6.25;;;3.47;;
14518;SDS011;7346;50.846;4.388;2022-09-03T15:46:44;5.05;;;3.60;;
14518;SDS011;7346;50.846;4.388;2022-09-03T15:49:26;4.13;;;3.60;;
14518;SDS011;7346;50.846;4.388;2022-09-03T15:52:07;7.57;;;3.97;;
14518;SDS011;7346;50.846;4.388;2022-09-03T15:54:45;5.40;;;3.40;;